sensor_id;sensor_type;location;lat;lon;timestamp;P1;durP1;ratioP1;P2;durP2;ratioP2
78324;SDS011;67584;51.400;6.692;2023-03-01T00:01:47;10.98;;;7.95;;
78324;SDS011;67584;51.400;6.692;2023-03-01T00:04:13;11.82;;;8.50;;
78324;SDS011;67584;51.400;6.692;2023-03-01T00:06:39;10.13;;;8.75;;
78324;SDS011;67584;51.400;6.692;2023-03-01T00:09:07;11.48;;;9.48;;
78324;SDS011;67584;51.400;6.692;2023-03-01T00:11:33;12.82;;;7.10;;
78324;SDS011;67584;51.400;6.692;2023-03-01T00:13:59;12.63;;;8.68;;
78324;SDS011;67584;51.400;6.692;2023-03-01T00:16:27;11.52;;;8.98;;
78324;SDS011;67584;51.400;6.692;2023-03-01T00:18:55;13.00;;;8.05;;
78324;SDS011;67584;51.400;6.692;2023-03-01T00:21:21;14.25;;;8.52;;
78324;SDS011;67584;51.400;6.692;2023-03-01T00:23:48;12.48;;;8.70;;
78324;SDS011;67584;51.400;6.692;2023-03-01T00:26:15;13.02;;;8.77;;
78324;SDS011;67584;51.400;6.692;2023-03-01T00:28:42;10.90;;;8.13;;
78324;SDS011;67584;51.400;6.692;2023-03-01T00:31:10;12.32;;;8.85;;
78324;SDS011;67584;51.400;6.692;2023-03-01T00:33:40;10.43;;;8.98;;
78324;SDS011;67584;51.400;6.692;2023-03-01T00:36:07;11.85;;;8.10;;
78324;SDS011;67584;51.400;6.692;2023-03-01T00:38:37;10.48;;;7.75;;
78324;SDS011;67584;51.400;6.692;2023-03-01T00:41:05;10.75;;;7.95;;
78324;SDS011;67584;51.400;6.692;2023-03-01T00:43:32;13.02;;;8.15;;
78324;SDS011;67584;51.400;6.692;2023-03-01T00:46:02;12.02;;;8.75;;
78324;SDS011;67584;51.400;6.692;2023-03-01T00:48:29;14.55;;;9.73;;
78324;SDS011;67584;51.400;6.692;2023-03-01T00:50:55;14.25;;;7.68;;
78324;SDS011;67584;51.400;6.692;2023-03-01T00:53:21;10.57;;;9.05;;
78324;SDS011;67584;51.400;6.692;2023-03-01T00:55:46;12.18;;;8.50;;
78324;SDS011;67584;51.400;6.692;2023-03-01T00:58:12;9.75;;;7.93;;
78324;SDS011;67584;51.400;6.692;2023-03-01T01:00:38;13.50;;;8.40;;
78324;SDS011;67584;51.400;6.692;2023-03-01T01:03:04;10.43;;;8.13;;
78324;SDS011;67584;51.400;6.692;2023-03-01T01:05:29;10.52;;;7.80;;
78324;SDS011;67584;51.400;6.692;2023-03-01T01:07:55;11.82;;;7.82;;
78324;SDS011;67584;51.400;6.692;2023-03-01T01:10:21;13.02;;;7.95;;
78324;SDS011;67584;51.400;6.692;2023-03-01T01:12:47;12.07;;;8.23;;
78324;SDS011;67584;51.400;6.692;2023-03-01T01:15:13;11.88;;;8.70;;
78324;SDS011;67584;51.400;6.692;2023-03-01T01:17:41;11.93;;;9.88;;
78324;SDS011;67584;51.400;6.692;2023-03-01T01:20:07;11.68;;;8.77;;
78324;SDS011;67584;51.400;6.692;2023-03-01T01:22:33;11.30;;;8.57;;
78324;SDS011;67584;51.400;6.692;2023-03-01T01:24:59;16.05;;;8.73;;
78324;SDS011;67584;51.400;6.692;2023-03-01T01:27:25;11.85;;;8.95;;
78324;SDS011;67584;51.400;6.692;2023-03-01T01:29:52;11.68;;;8.65;;
78324;SDS011;67584;51.400;6.692;2023-03-01T01:32:18;14.85;;;8.57;;
78324;SDS011;67584;51.400;6.692;2023-03-01T01:34:44;13.32;;;8.82;;
78324;SDS011;67584;51.400;6.692;2023-03-01T01:37:10;12.25;;;8.05;;
78324;SDS011;67584;51.400;6.692;2023-03-01T01:39:35;11.55;;;8.30;;
78324;SDS011;67584;51.400;6.692;2023-03-01T01:42:01;11.43;;;8.45;;
78324;SDS011;67584;51.400;6.692;2023-03-01T01:44:28;11.20;;;8.40;;
78324;SDS011;67584;51.400;6.692;2023-03-01T01:47:05;9.13;;;8.18;;
78324;SDS011;67584;51.400;6.692;2023-03-01T01:57:19;12.35;;;8.15;;
78324;SDS011;67584;51.400;6.692;2023-03-01T01:59:54;11.60;;;8.70;;
78324;SDS011;67584;51.400;6.692;2023-03-01T02:02:23;11.90;;;8.73;;
78324;SDS011;67584;51.400;6.692;2023-03-01T02:04:50;10.45;;;8.32;;
78324;SDS011;67584;51.400;6.692;2023-03-01T02:07:24;13.50;;;9.90;;
78324;SDS011;67584;51.400;6.692;2023-03-01T02:09:51;13.48;;;9.18;;
78324;SDS011;67584;51.400;6.692;2023-03-01T02:12:19;13.02;;;8.52;;
78324;SDS011;67584;51.400;6.692;2023-03-01T02:14:48;15.55;;;8.73;;
78324;SDS011;67584;51.400;6.692;2023-03-01T02:17:14;13.10;;;8.85;;
78324;SDS011;67584;51.400;6.692;2023-03-01T02:22:33;14.35;;;10.05;;
78324;SDS011;67584;51.400;6.692;2023-03-01T02:30:21;13.40;;;9.30;;
78324;SDS011;67584;51.400;6.692;2023-03-01T02:32:47;13.25;;;8.45;;
78324;SDS011;67584;51.400;6.692;2023-03-01T02:35:14;12.43;;;8.73;;
78324;SDS011;67584;51.400;6.692;2023-03-01T02:37:43;12.13;;;8.93;;
78324;SDS011;67584;51.400;6.692;2023-03-01T02:40:16;10.88;;;8.13;;
78324;SDS011;67584;51.400;6.692;2023-03-01T02:42:52;10.52;;;7.95;;
78324;SDS011;67584;51.400;6.692;2023-03-01T02:45:21;14.32;;;9.23;;
78324;SDS011;67584;51.400;6.692;2023-03-01T02:47:48;11.82;;;8.18;;
78324;SDS011;67584;51.400;6.692;2023-03-01T02:50:43;11.30;;;8.75;;
78324;SDS011;67584;51.400;6.692;2023-03-01T02:53:23;10.95;;;8.05;;
78324;SDS011;67584;51.400;6.692;2023-03-01T02:55:58;13.73;;;8.73;;
78324;SDS011;67584;51.400;6.692;2023-03-01T02:58:24;10.65;;;7.97;;
78324;SDS011;67584;51.400;6.692;2023-03-01T03:00:50;13.80;;;9.48;;
78324;SDS011;67584;51.400;6.692;2023-03-01T03:03:16;13.25;;;8.98;;
78324;SDS011;67584;51.400;6.692;2023-03-01T03:05:44;10.45;;;8.10;;
78324;SDS011;67584;51.400;6.692;2023-03-01T03:08:10;11.75;;;8.82;;
78324;SDS011;67584;51.400;6.692;2023-03-01T03:10:37;11.30;;;8.88;;
78324;SDS011;67584;51.400;6.692;2023-03-01T03:13:09;12.43;;;7.25;;
78324;SDS011;67584;51.400;6.692;2023-03-01T03:15:39;10.80;;;8.27;;
78324;SDS011;67584;51.400;6.692;2023-03-01T03:18:13;13.73;;;8.60;;
78324;SDS011;67584;51.400;6.692;2023-03-01T03:20:42;10.95;;;7.63;;
78324;SDS011;67584;51.400;6.692;2023-03-01T03:23:09;14.88;;;8.45;;
78324;SDS011;67584;51.400;6.692;2023-03-01T03:25:35;10.68;;;8.68;;
78324;SDS011;67584;51.400;6.692;2023-03-01T03:28:03;14.70;;;9.32;;
78324;SDS011;67584;51.400;6.692;2023-03-01T03:30:35;15.18;;;8.75;;
78324;SDS011;67584;51.400;6.692;2023-03-01T03:33:04;12.25;;;8.63;;
78324;SDS011;67584;51.400;6.692;2023-03-01T03:35:31;10.43;;;8.55;;
78324;SDS011;67584;51.400;6.692;2023-03-01T03:38:04;17.25;;;8.45;;
78324;SDS011;67584;51.400;6.692;2023-03-01T03:43:03;12.57;;;8.57;;
78324;SDS011;67584;51.400;6.692;2023-03-01T03:45:30;10.57;;;9.55;;
78324;SDS011;67584;51.400;6.692;2023-03-01T03:47:58;12.65;;;8.35;;
78324;SDS011;67584;51.400;6.692;2023-03-01T03:50:25;14.27;;;9.25;;
78324;SDS011;67584;51.400;6.692;2023-03-01T03:52:51;12.00;;;8.50;;
78324;SDS011;67584;51.400;6.692;2023-03-01T03:55:17;12.82;;;7.72;;
78324;SDS011;67584;51.400;6.692;2023-03-01T03:57:45;17.15;;;9.52;;
78324;SDS011;67584;51.400;6.692;2023-03-01T04:00:19;11.27;;;8.20;;
78324;SDS011;67584;51.400;6.692;2023-03-01T04:02:49;9.48;;;7.93;;
78324;SDS011;67584;51.400;6.692;2023-03-01T04:05:16;14.57;;;8.25;;
78324;SDS011;67584;51.400;6.692;2023-03-01T04:07:43;14.40;;;9.30;;
78324;SDS011;67584;51.400;6.692;2023-03-01T04:10:19;15.75;;;8.65;;
78324;SDS011;67584;51.400;6.692;2023-03-01T04:12:45;10.57;;;8.18;;
78324;SDS011;67584;51.400;6.692;2023-03-01T04:15:11;15.45;;;10.32;;
78324;SDS011;67584;51.400;6.692;2023-03-01T04:17:40;12.23;;;7.97;;
78324;SDS011;67584;51.400;6.692;2023-03-01T04:20:17;13.77;;;8.80;;
78324;SDS011;67584;51.400;6.692;2023-03-01T04:22:50;14.48;;;9.23;;
78324;SDS011;67584;51.400;6.692;2023-03-01T04:25:22;14.05;;;9.13;;
78324;SDS011;67584;51.400;6.692;2023-03-01T04:27:51;13.20;;;9.55;;
78324;SDS011;67584;51.400;6.692;2023-03-01T04:30:17;14.15;;;8.10;;
78324;SDS011;67584;51.400;6.692;2023-03-01T04:32:43;13.70;;;9.55;;
78324;SDS011;67584;51.400;6.692;2023-03-01T04:35:08;11.65;;;8.23;;
78324;SDS011;67584;51.400;6.692;2023-03-01T04:37:34;11.80;;;9.18;;
78324;SDS011;67584;51.400;6.692;2023-03-01T04:40:01;13.07;;;8.80;;
78324;SDS011;67584;51.400;6.692;2023-03-01T04:42:38;16.98;;;8.82;;
78324;SDS011;67584;51.400;6.692;2023-03-01T04:45:04;15.25;;;9.70;;
78324;SDS011;67584;51.400;6.692;2023-03-01T04:47:41;13.35;;;9.20;;
78324;SDS011;67584;51.400;6.692;2023-03-01T04:50:10;17.13;;;9.23;;
78324;SDS011;67584;51.400;6.692;2023-03-01T04:52:37;14.52;;;9.82;;
78324;SDS011;67584;51.400;6.692;2023-03-01T04:55:03;16.55;;;9.98;;
78324;SDS011;67584;51.400;6.692;2023-03-01T04:57:29;15.95;;;10.10;;
78324;SDS011;67584;51.400;6.692;2023-03-01T04:59:56;13.05;;;9.20;;
78324;SDS011;67584;51.400;6.692;2023-03-01T05:02:22;14.80;;;9.50;;
78324;SDS011;67584;51.400;6.692;2023-03-01T05:04:47;13.98;;;9.57;;
78324;SDS011;67584;51.400;6.692;2023-03-01T05:07:13;10.27;;;7.97;;
78324;SDS011;67584;51.400;6.692;2023-03-01T05:09:47;13.38;;;8.35;;
78324;SDS011;67584;51.400;6.692;2023-03-01T05:12:13;14.75;;;9.02;;
78324;SDS011;67584;51.400;6.692;2023-03-01T05:14:40;15.32;;;9.18;;
78324;SDS011;67584;51.400;6.692;2023-03-01T05:17:06;16.00;;;9.43;;
78324;SDS011;67584;51.400;6.692;2023-03-01T05:19:33;16.00;;;9.20;;
78324;SDS011;67584;51.400;6.692;2023-03-01T05:21:59;20.63;;;10.30;;
78324;SDS011;67584;51.400;6.692;2023-03-01T05:24:32;15.65;;;9.23;;
78324;SDS011;67584;51.400;6.692;2023-03-01T05:27:00;17.95;;;9.73;;
78324;SDS011;67584;51.400;6.692;2023-03-01T05:29:27;15.57;;;9.45;;
78324;SDS011;67584;51.400;6.692;2023-03-01T05:32:01;12.68;;;7.82;;
78324;SDS011;67584;51.400;6.692;2023-03-01T05:34:32;13.55;;;8.65;;
78324;SDS011;67584;51.400;6.692;2023-03-01T05:37:00;12.30;;;9.02;;
78324;SDS011;67584;51.400;6.692;2023-03-01T05:39:27;15.38;;;9.32;;
78324;SDS011;67584;51.400;6.692;2023-03-01T05:41:54;16.75;;;9.32;;
78324;SDS011;67584;51.400;6.692;2023-03-01T05:44:21;18.23;;;8.77;;
78324;SDS011;67584;51.400;6.692;2023-03-01T05:46:47;11.48;;;8.10;;
78324;SDS011;67584;51.400;6.692;2023-03-01T05:49:14;12.73;;;8.45;;
78324;SDS011;67584;51.400;6.692;2023-03-01T05:51:41;13.77;;;8.38;;
78324;SDS011;67584;51.400;6.692;2023-03-01T05:54:08;12.80;;;8.45;;
78324;SDS011;67584;51.400;6.692;2023-03-01T05:56:34;13.85;;;9.50;;
78324;SDS011;67584;51.400;6.692;2023-03-01T05:59:01;14.48;;;8.77;;
78324;SDS011;67584;51.400;6.692;2023-03-01T06:01:28;17.17;;;10.10;;
78324;SDS011;67584;51.400;6.692;2023-03-01T06:03:54;12.32;;;8.50;;
78324;SDS011;67584;51.400;6.692;2023-03-01T06:06:21;16.50;;;9.07;;
78324;SDS011;67584;51.400;6.692;2023-03-01T06:08:49;13.13;;;8.15;;
78324;SDS011;67584;51.400;6.692;2023-03-01T06:11:15;11.45;;;7.28;;
78324;SDS011;67584;51.400;6.692;2023-03-01T06:13:42;25.33;;;9.80;;
78324;SDS011;67584;51.400;6.692;2023-03-01T06:16:09;13.65;;;9.15;;
78324;SDS011;67584;51.400;6.692;2023-03-01T06:18:35;13.52;;;8.95;;
78324;SDS011;67584;51.400;6.692;2023-03-01T06:21:02;14.10;;;9.27;;
78324;SDS011;67584;51.400;6.692;2023-03-01T06:23:29;11.98;;;9.00;;
78324;SDS011;67584;51.400;6.692;2023-03-01T06:25:55;12.02;;;8.43;;
78324;SDS011;67584;51.400;6.692;2023-03-01T06:28:21;12.55;;;8.13;;
78324;SDS011;67584;51.400;6.692;2023-03-01T06:30:48;13.43;;;8.30;;
78324;SDS011;67584;51.400;6.692;2023-03-01T06:33:14;12.27;;;8.55;;
78324;SDS011;67584;51.400;6.692;2023-03-01T06:35:40;14.07;;;8.80;;
78324;SDS011;67584;51.400;6.692;2023-03-01T06:38:06;12.68;;;8.88;;
78324;SDS011;67584;51.400;6.692;2023-03-01T06:40:32;17.08;;;9.38;;
78324;SDS011;67584;51.400;6.692;2023-03-01T06:43:00;12.00;;;9.00;;
78324;SDS011;67584;51.400;6.692;2023-03-01T06:45:26;12.95;;;8.70;;
78324;SDS011;67584;51.400;6.692;2023-03-01T06:47:52;10.93;;;8.32;;
78324;SDS011;67584;51.400;6.692;2023-03-01T06:50:25;13.38;;;9.52;;
78324;SDS011;67584;51.400;6.692;2023-03-01T06:52:55;14.20;;;8.98;;
78324;SDS011;67584;51.400;6.692;2023-03-01T06:55:21;16.48;;;10.55;;
78324;SDS011;67584;51.400;6.692;2023-03-01T06:57:47;11.07;;;8.27;;
78324;SDS011;67584;51.400;6.692;2023-03-01T07:00:13;12.65;;;8.98;;
78324;SDS011;67584;51.400;6.692;2023-03-01T07:02:39;11.75;;;8.52;;
78324;SDS011;67584;51.400;6.692;2023-03-01T07:05:05;15.90;;;9.35;;
78324;SDS011;67584;51.400;6.692;2023-03-01T07:07:31;12.38;;;9.02;;
78324;SDS011;67584;51.400;6.692;2023-03-01T07:09:57;12.30;;;8.05;;
78324;SDS011;67584;51.400;6.692;2023-03-01T07:12:23;14.38;;;8.38;;
78324;SDS011;67584;51.400;6.692;2023-03-01T07:14:49;10.00;;;7.60;;
78324;SDS011;67584;51.400;6.692;2023-03-01T07:17:14;12.18;;;8.27;;
78324;SDS011;67584;51.400;6.692;2023-03-01T07:19:40;15.60;;;8.88;;
78324;SDS011;67584;51.400;6.692;2023-03-01T07:22:10;14.18;;;8.50;;
78324;SDS011;67584;51.400;6.692;2023-03-01T07:24:35;11.27;;;7.22;;
78324;SDS011;67584;51.400;6.692;2023-03-01T07:27:01;11.90;;;8.35;;
78324;SDS011;67584;51.400;6.692;2023-03-01T07:29:27;12.38;;;8.32;;
78324;SDS011;67584;51.400;6.692;2023-03-01T07:31:54;13.40;;;8.75;;
78324;SDS011;67584;51.400;6.692;2023-03-01T07:34:20;11.70;;;8.25;;
78324;SDS011;67584;51.400;6.692;2023-03-01T07:36:45;13.98;;;8.98;;
78324;SDS011;67584;51.400;6.692;2023-03-01T07:39:11;14.70;;;8.30;;
78324;SDS011;67584;51.400;6.692;2023-03-01T07:41:37;15.60;;;8.30;;
78324;SDS011;67584;51.400;6.692;2023-03-01T07:44:03;13.10;;;8.32;;
78324;SDS011;67584;51.400;6.692;2023-03-01T07:46:29;12.07;;;7.57;;
78324;SDS011;67584;51.400;6.692;2023-03-01T07:48:55;10.98;;;7.95;;
78324;SDS011;67584;51.400;6.692;2023-03-01T07:51:22;12.75;;;8.35;;
78324;SDS011;67584;51.400;6.692;2023-03-01T07:53:49;15.20;;;8.48;;
78324;SDS011;67584;51.400;6.692;2023-03-01T07:56:15;14.70;;;8.18;;
78324;SDS011;67584;51.400;6.692;2023-03-01T07:58:43;14.73;;;8.68;;
78324;SDS011;67584;51.400;6.692;2023-03-01T08:01:10;13.35;;;8.15;;
78324;SDS011;67584;51.400;6.692;2023-03-01T08:03:39;12.13;;;8.48;;
78324;SDS011;67584;51.400;6.692;2023-03-01T08:06:06;11.10;;;8.10;;
78324;SDS011;67584;51.400;6.692;2023-03-01T08:08:33;13.35;;;8.75;;
78324;SDS011;67584;51.400;6.692;2023-03-01T08:11:01;12.75;;;8.30;;
78324;SDS011;67584;51.400;6.692;2023-03-01T08:13:28;13.20;;;8.10;;
78324;SDS011;67584;51.400;6.692;2023-03-01T08:15:59;11.95;;;8.13;;
78324;SDS011;67584;51.400;6.692;2023-03-01T08:18:27;12.52;;;8.32;;
78324;SDS011;67584;51.400;6.692;2023-03-01T08:20:52;10.63;;;7.85;;
78324;SDS011;67584;51.400;6.692;2023-03-01T08:23:18;11.68;;;7.68;;
78324;SDS011;67584;51.400;6.692;2023-03-01T08:25:44;12.65;;;7.82;;
78324;SDS011;67584;51.400;6.692;2023-03-01T08:28:10;12.88;;;7.95;;
78324;SDS011;67584;51.400;6.692;2023-03-01T08:30:35;11.27;;;7.65;;
78324;SDS011;67584;51.400;6.692;2023-03-01T08:33:01;11.52;;;8.43;;
78324;SDS011;67584;51.400;6.692;2023-03-01T08:35:27;10.10;;;8.10;;
78324;SDS011;67584;51.400;6.692;2023-03-01T08:37:53;12.50;;;7.85;;
78324;SDS011;67584;51.400;6.692;2023-03-01T08:40:18;10.93;;;7.93;;
78324;SDS011;67584;51.400;6.692;2023-03-01T08:42:44;13.57;;;8.02;;
78324;SDS011;67584;51.400;6.692;2023-03-01T08:45:10;10.77;;;8.25;;
78324;SDS011;67584;51.400;6.692;2023-03-01T08:47:37;13.13;;;8.35;;
78324;SDS011;67584;51.400;6.692;2023-03-01T08:50:03;11.93;;;7.88;;
78324;SDS011;67584;51.400;6.692;2023-03-01T08:52:29;12.57;;;8.40;;
78324;SDS011;67584;51.400;6.692;2023-03-01T08:54:55;11.52;;;7.55;;
78324;SDS011;67584;51.400;6.692;2023-03-01T08:57:21;10.80;;;8.65;;
78324;SDS011;67584;51.400;6.692;2023-03-01T08:59:47;12.88;;;8.18;;
78324;SDS011;67584;51.400;6.692;2023-03-01T09:02:14;11.38;;;7.72;;
78324;SDS011;67584;51.400;6.692;2023-03-01T09:04:41;11.07;;;8.77;;
78324;SDS011;67584;51.400;6.692;2023-03-01T09:07:07;10.57;;;7.50;;
78324;SDS011;67584;51.400;6.692;2023-03-01T09:09:33;11.13;;;8.40;;
78324;SDS011;67584;51.400;6.692;2023-03-01T09:11:59;10.00;;;7.85;;
78324;SDS011;67584;51.400;6.692;2023-03-01T09:14:26;12.35;;;8.20;;
78324;SDS011;67584;51.400;6.692;2023-03-01T09:16:52;11.43;;;7.97;;
78324;SDS011;67584;51.400;6.692;2023-03-01T09:19:17;9.30;;;7.13;;
78324;SDS011;67584;51.400;6.692;2023-03-01T09:21:43;11.90;;;7.05;;
78324;SDS011;67584;51.400;6.692;2023-03-01T09:24:17;12.48;;;7.90;;
78324;SDS011;67584;51.400;6.692;2023-03-01T09:26:45;12.32;;;8.23;;
78324;SDS011;67584;51.400;6.692;2023-03-01T09:29:12;13.30;;;8.60;;
78324;SDS011;67584;51.400;6.692;2023-03-01T09:31:39;12.15;;;8.32;;
78324;SDS011;67584;51.400;6.692;2023-03-01T09:34:06;11.20;;;6.82;;
78324;SDS011;67584;51.400;6.692;2023-03-01T09:36:32;9.45;;;7.78;;
78324;SDS011;67584;51.400;6.692;2023-03-01T09:38:58;10.93;;;7.55;;
78324;SDS011;67584;51.400;6.692;2023-03-01T09:46:59;9.80;;;6.57;;
78324;SDS011;67584;51.400;6.692;2023-03-01T09:49:27;10.45;;;7.97;;
78324;SDS011;67584;51.400;6.692;2023-03-01T09:52:00;11.60;;;7.95;;
78324;SDS011;67584;51.400;6.692;2023-03-01T09:54:37;9.82;;;8.05;;
78324;SDS011;67584;51.400;6.692;2023-03-01T09:57:47;11.20;;;7.97;;
78324;SDS011;67584;51.400;6.692;2023-03-01T10:02:51;15.25;;;8.95;;
78324;SDS011;67584;51.400;6.692;2023-03-01T10:05:34;9.43;;;7.78;;
78324;SDS011;67584;51.400;6.692;2023-03-01T10:10:50;9.07;;;7.57;;
78324;SDS011;67584;51.400;6.692;2023-03-01T10:13:23;11.95;;;8.20;;
78324;SDS011;67584;51.400;6.692;2023-03-01T10:15:59;9.20;;;7.95;;
78324;SDS011;67584;51.400;6.692;2023-03-01T10:18:38;11.52;;;8.30;;
78324;SDS011;67584;51.400;6.692;2023-03-01T10:23:38;12.20;;;7.32;;
78324;SDS011;67584;51.400;6.692;2023-03-01T10:31:24;10.13;;;6.90;;
78324;SDS011;67584;51.400;6.692;2023-03-01T10:34:02;10.35;;;6.90;;
78324;SDS011;67584;51.400;6.692;2023-03-01T10:36:32;10.60;;;7.45;;
78324;SDS011;67584;51.400;6.692;2023-03-01T10:38:59;8.95;;;7.50;;
78324;SDS011;67584;51.400;6.692;2023-03-01T10:41:28;9.85;;;6.82;;
78324;SDS011;67584;51.400;6.692;2023-03-01T10:43:56;11.00;;;6.60;;
78324;SDS011;67584;51.400;6.692;2023-03-01T10:51:43;9.68;;;7.15;;
78324;SDS011;67584;51.400;6.692;2023-03-01T10:56:51;9.70;;;6.38;;
78324;SDS011;67584;51.400;6.692;2023-03-01T10:59:31;13.07;;;7.65;;
78324;SDS011;67584;51.400;6.692;2023-03-01T11:04:27;9.73;;;6.80;;
78324;SDS011;67584;51.400;6.692;2023-03-01T11:06:59;9.27;;;6.35;;
78324;SDS011;67584;51.400;6.692;2023-03-01T11:09:29;9.07;;;6.97;;
78324;SDS011;67584;51.400;6.692;2023-03-01T11:12:03;8.45;;;6.72;;
78324;SDS011;67584;51.400;6.692;2023-03-01T11:14:37;8.55;;;7.10;;
78324;SDS011;67584;51.400;6.692;2023-03-01T11:17:12;9.32;;;7.10;;
78324;SDS011;67584;51.400;6.692;2023-03-01T11:19:42;9.43;;;6.90;;
78324;SDS011;67584;51.400;6.692;2023-03-01T11:22:20;9.40;;;7.22;;
78324;SDS011;67584;51.400;6.692;2023-03-01T11:24:48;11.85;;;6.57;;
78324;SDS011;67584;51.400;6.692;2023-03-01T11:27:26;9.57;;;6.93;;
78324;SDS011;67584;51.400;6.692;2023-03-01T11:30:12;8.00;;;6.38;;
78324;SDS011;67584;51.400;6.692;2023-03-01T11:35:33;7.57;;;6.38;;
78324;SDS011;67584;51.400;6.692;2023-03-01T11:38:22;9.23;;;6.38;;
78324;SDS011;67584;51.400;6.692;2023-03-01T11:40:52;10.77;;;6.22;;
78324;SDS011;67584;51.400;6.692;2023-03-01T11:43:23;9.48;;;6.90;;
78324;SDS011;67584;51.400;6.692;2023-03-01T11:48:41;14.63;;;7.78;;
78324;SDS011;67584;51.400;6.692;2023-03-01T11:51:15;9.80;;;6.70;;
78324;SDS011;67584;51.400;6.692;2023-03-01T12:02:17;10.60;;;7.28;;
78324;SDS011;67584;51.400;6.692;2023-03-01T12:05:01;14.35;;;10.38;;
78324;SDS011;67584;51.400;6.692;2023-03-01T12:07:51;9.35;;;6.18;;
78324;SDS011;67584;51.400;6.692;2023-03-01T12:10:20;7.38;;;5.53;;
78324;SDS011;67584;51.400;6.692;2023-03-01T12:15:37;7.03;;;6.22;;
78324;SDS011;67584;51.400;6.692;2023-03-01T12:21:20;9.93;;;5.90;;
78324;SDS011;67584;51.400;6.692;2023-03-01T12:42:58;9.18;;;6.57;;
78324;SDS011;67584;51.400;6.692;2023-03-01T12:45:34;8.20;;;6.05;;
78324;SDS011;67584;51.400;6.692;2023-03-01T12:51:17;10.07;;;7.20;;
78324;SDS011;67584;51.400;6.692;2023-03-01T12:56:21;8.88;;;6.85;;
78324;SDS011;67584;51.400;6.692;2023-03-01T13:07:04;7.15;;;6.43;;
78324;SDS011;67584;51.400;6.692;2023-03-01T13:10:04;7.72;;;6.20;;
78324;SDS011;67584;51.400;6.692;2023-03-01T13:17:50;8.93;;;7.03;;
78324;SDS011;67584;51.400;6.692;2023-03-01T13:20:48;8.35;;;6.50;;
78324;SDS011;67584;51.400;6.692;2023-03-01T13:31:08;8.73;;;6.88;;
78324;SDS011;67584;51.400;6.692;2023-03-01T13:33:42;8.48;;;6.72;;
78324;SDS011;67584;51.400;6.692;2023-03-01T13:36:46;8.75;;;6.72;;
78324;SDS011;67584;51.400;6.692;2023-03-01T13:41:49;8.18;;;6.88;;
78324;SDS011;67584;51.400;6.692;2023-03-01T13:44:26;10.48;;;7.05;;
78324;SDS011;67584;51.400;6.692;2023-03-01T13:57:43;9.20;;;6.15;;
78324;SDS011;67584;51.400;6.692;2023-03-01T14:00:27;8.75;;;6.65;;
78324;SDS011;67584;51.400;6.692;2023-03-01T14:05:30;10.10;;;6.30;;
78324;SDS011;67584;51.400;6.692;2023-03-01T14:07:57;8.63;;;6.07;;
78324;SDS011;67584;51.400;6.692;2023-03-01T14:10:24;8.23;;;5.97;;
78324;SDS011;67584;51.400;6.692;2023-03-01T14:15:33;6.80;;;6.13;;
78324;SDS011;67584;51.400;6.692;2023-03-01T14:18:04;7.53;;;5.68;;
78324;SDS011;67584;51.400;6.692;2023-03-01T14:20:40;8.02;;;5.75;;
78324;SDS011;67584;51.400;6.692;2023-03-01T14:23:12;9.30;;;6.13;;
78324;SDS011;67584;51.400;6.692;2023-03-01T14:25:46;7.78;;;6.45;;
78324;SDS011;67584;51.400;6.692;2023-03-01T14:33:20;9.00;;;6.35;;
78324;SDS011;67584;51.400;6.692;2023-03-01T14:36:00;8.13;;;6.47;;
78324;SDS011;67584;51.400;6.692;2023-03-01T14:38:34;6.22;;;5.63;;
78324;SDS011;67584;51.400;6.692;2023-03-01T14:41:12;8.90;;;6.55;;
78324;SDS011;67584;51.400;6.692;2023-03-01T14:43:42;10.43;;;7.38;;
78324;SDS011;67584;51.400;6.692;2023-03-01T14:46:33;7.57;;;6.38;;
78324;SDS011;67584;51.400;6.692;2023-03-01T14:49:13;9.32;;;6.53;;
78324;SDS011;67584;51.400;6.692;2023-03-01T14:51:52;9.82;;;7.15;;
78324;SDS011;67584;51.400;6.692;2023-03-01T14:56:50;9.10;;;6.97;;
78324;SDS011;67584;51.400;6.692;2023-03-01T14:59:19;8.30;;;6.40;;
78324;SDS011;67584;51.400;6.692;2023-03-01T15:01:48;8.68;;;7.78;;
78324;SDS011;67584;51.400;6.692;2023-03-01T15:04:17;10.10;;;7.40;;
78324;SDS011;67584;51.400;6.692;2023-03-01T15:06:44;9.95;;;6.60;;
78324;SDS011;67584;51.400;6.692;2023-03-01T15:09:14;9.85;;;7.22;;
78324;SDS011;67584;51.400;6.692;2023-03-01T15:11:42;9.80;;;8.30;;
78324;SDS011;67584;51.400;6.692;2023-03-01T15:20:00;10.00;;;7.15;;
78324;SDS011;67584;51.400;6.692;2023-03-01T15:22:29;8.40;;;6.97;;
78324;SDS011;67584;51.400;6.692;2023-03-01T15:24:55;8.25;;;7.32;;
78324;SDS011;67584;51.400;6.692;2023-03-01T15:27:21;9.50;;;7.82;;
78324;SDS011;67584;51.400;6.692;2023-03-01T15:29:51;10.20;;;8.02;;
78324;SDS011;67584;51.400;6.692;2023-03-01T15:34:55;10.45;;;7.65;;
78324;SDS011;67584;51.400;6.692;2023-03-01T15:40:23;8.70;;;6.60;;
78324;SDS011;67584;51.400;6.692;2023-03-01T15:43:03;10.05;;;7.28;;
78324;SDS011;67584;51.400;6.692;2023-03-01T15:45:31;8.43;;;6.30;;
78324;SDS011;67584;51.400;6.692;2023-03-01T15:48:04;8.20;;;6.15;;
78324;SDS011;67584;51.400;6.692;2023-03-01T15:50:42;9.52;;;6.38;;
78324;SDS011;67584;51.400;6.692;2023-03-01T15:53:13;8.57;;;6.78;;
78324;SDS011;67584;51.400;6.692;2023-03-01T15:55:40;9.05;;;6.60;;
78324;SDS011;67584;51.400;6.692;2023-03-01T15:58:10;10.35;;;6.18;;
78324;SDS011;67584;51.400;6.692;2023-03-01T16:00:54;10.13;;;7.10;;
78324;SDS011;67584;51.400;6.692;2023-03-01T16:03:23;8.68;;;5.90;;
78324;SDS011;67584;51.400;6.692;2023-03-01T16:05:50;8.88;;;6.13;;
78324;SDS011;67584;51.400;6.692;2023-03-01T16:08:16;7.90;;;6.22;;
78324;SDS011;67584;51.400;6.692;2023-03-01T16:10:43;7.13;;;5.90;;
78324;SDS011;67584;51.400;6.692;2023-03-01T16:13:13;10.23;;;5.68;;
78324;SDS011;67584;51.400;6.692;2023-03-01T16:15:39;7.90;;;6.18;;
78324;SDS011;67584;51.400;6.692;2023-03-01T16:18:05;8.15;;;6.40;;
78324;SDS011;67584;51.400;6.692;2023-03-01T16:20:32;9.32;;;6.80;;
78324;SDS011;67584;51.400;6.692;2023-03-01T16:23:00;9.00;;;6.97;;
78324;SDS011;67584;51.400;6.692;2023-03-01T16:25:31;10.95;;;7.50;;
78324;SDS011;67584;51.400;6.692;2023-03-01T16:27:57;9.80;;;7.13;;
78324;SDS011;67584;51.400;6.692;2023-03-01T16:30:26;11.15;;;7.72;;
78324;SDS011;67584;51.400;6.692;2023-03-01T16:32:52;9.02;;;6.97;;
78324;SDS011;67584;51.400;6.692;2023-03-01T16:35:18;8.93;;;6.80;;
78324;SDS011;67584;51.400;6.692;2023-03-01T16:37:45;7.90;;;6.15;;
78324;SDS011;67584;51.400;6.692;2023-03-01T16:40:17;7.78;;;6.10;;
78324;SDS011;67584;51.400;6.692;2023-03-01T16:42:46;10.23;;;5.70;;
78324;SDS011;67584;51.400;6.692;2023-03-01T16:45:12;9.13;;;5.90;;
78324;SDS011;67584;51.400;6.692;2023-03-01T16:47:38;11.40;;;5.97;;
78324;SDS011;67584;51.400;6.692;2023-03-01T16:50:04;7.90;;;5.78;;
78324;SDS011;67584;51.400;6.692;2023-03-01T16:52:30;10.07;;;6.55;;
78324;SDS011;67584;51.400;6.692;2023-03-01T16:54:56;9.82;;;6.43;;
78324;SDS011;67584;51.400;6.692;2023-03-01T16:57:22;8.25;;;6.75;;
78324;SDS011;67584;51.400;6.692;2023-03-01T16:59:51;9.75;;;7.53;;
78324;SDS011;67584;51.400;6.692;2023-03-01T17:02:18;11.13;;;6.57;;
78324;SDS011;67584;51.400;6.692;2023-03-01T17:04:45;8.73;;;6.07;;
78324;SDS011;67584;51.400;6.692;2023-03-01T17:07:16;9.35;;;6.35;;
78324;SDS011;67584;51.400;6.692;2023-03-01T17:09:42;9.50;;;6.57;;
78324;SDS011;67584;51.400;6.692;2023-03-01T17:12:08;11.70;;;6.78;;
78324;SDS011;67584;51.400;6.692;2023-03-01T17:17:03;9.15;;;6.28;;
78324;SDS011;67584;51.400;6.692;2023-03-01T17:19:29;10.93;;;6.68;;
78324;SDS011;67584;51.400;6.692;2023-03-01T17:21:56;8.70;;;6.85;;
78324;SDS011;67584;51.400;6.692;2023-03-01T17:24:22;8.80;;;6.40;;